createdAt,value
2018-03-22T00:00:10.387Z,67.46
2018-03-22T00:00:50.976Z,67.27
2018-03-22T00:01:31.575Z,67.36
2018-03-22T00:02:12.332Z,67.55
2018-03-22T00:02:52.840Z,67.65
2018-03-22T00:03:33.391Z,67.65
2018-03-22T00:04:13.985Z,67.83
2018-03-22T00:04:54.567Z,68.21
2018-03-22T00:05:35.135Z,68.12
2018-03-22T00:06:15.736Z,68.21
2018-03-22T00:06:56.294Z,68.59
2018-03-22T00:07:36.850Z,68.21
2018-03-22T00:08:17.440Z,68.5
2018-03-22T00:08:58.020Z,69.17
2018-03-22T00:09:38.720Z,69.17
2018-03-22T00:10:19.406Z,68.88
2018-03-22T00:10:59.949Z,68.88
2018-03-22T00:11:40.498Z,68.79
2018-03-22T00:12:21.069Z,68.88
2018-03-22T00:13:01.673Z,69.17
2018-03-22T00:13:42.406Z,68.69
2018-03-22T00:14:23.072Z,69.07
2018-03-22T00:15:03.633Z,68.79
2018-03-22T00:15:44.200Z,69.07
2018-03-22T00:16:24.756Z,68.69
2018-03-22T00:17:05.357Z,68.5
2018-03-22T00:17:45.906Z,68.5
2018-03-22T00:18:26.489Z,68.5
2018-03-22T00:19:07.060Z,68.69
2018-03-22T00:19:47.635Z,68.59
2018-03-22T00:20:28.191Z,68.5
2018-03-22T00:21:08.748Z,68.88
2018-03-22T00:21:49.303Z,68.79
2018-03-22T00:22:29.900Z,68.79
2018-03-22T00:23:10.535Z,68.88
2018-03-22T00:23:51.042Z,69.35
2018-03-22T00:24:31.599Z,68.98
2018-03-22T00:25:12.154Z,69.54
2018-03-22T00:25:52.743Z,69.45
2018-03-22T00:26:33.288Z,69.64
2018-03-22T00:27:13.856Z,69.64
2018-03-22T00:27:54.409Z,69.82
2018-03-22T00:28:34.970Z,69.92
2018-03-22T00:29:15.515Z,70.3
2018-03-22T00:29:56.589Z,70.49
2018-03-22T00:30:37.672Z,70.39
2018-03-22T00:31:18.240Z,70.68
2018-03-22T00:31:58.845Z,71.15
2018-03-22T00:32:39.407Z,71.72
2018-03-22T00:33:19.966Z,72.1
2018-03-22T00:34:00.548Z,72.29
2018-03-22T00:34:41.077Z,72.38
2018-03-22T00:35:21.640Z,72.19
2018-03-22T00:36:02.214Z,72.96
2018-03-22T00:36:42.775Z,72.77
2018-03-22T00:37:23.462Z,73.14
2018-03-22T00:38:04.197Z,73.43
2018-03-22T00:38:44.873Z,73.24
2018-03-22T00:39:25.664Z,73.52
2018-03-22T00:40:06.283Z,73.99
2018-03-22T00:40:46.827Z,73.43
2018-03-22T00:41:27.388Z,73.61
2018-03-22T00:42:07.927Z,74.09
2018-03-22T00:42:48.493Z,74.28
2018-03-22T00:43:29.052Z,74.18
2018-03-22T00:44:09.616Z,74.18
2018-03-22T00:44:50.296Z,74.18
2018-03-22T00:45:30.977Z,73.9
2018-03-22T00:46:11.618Z,73.8
2018-03-22T00:46:52.222Z,73.9
2018-03-22T00:47:32.781Z,74.09
2018-03-22T00:48:13.340Z,74.37
2018-03-22T00:48:53.898Z,74.28
2018-03-22T00:49:34.625Z,74.37
2018-03-22T00:50:15.121Z,74.37
2018-03-22T00:50:55.670Z,74.09
2018-03-22T00:51:36.241Z,74.37
2018-03-22T00:52:16.792Z,74.28
2018-03-22T00:52:57.351Z,74.37
2018-03-22T00:53:37.902Z,74.85
2018-03-22T00:54:18.466Z,74.75
2018-03-22T00:54:59.019Z,74.85
2018-03-22T00:55:39.957Z,74.95
2018-03-22T00:56:20.528Z,74.75
2018-03-22T00:57:01.074Z,74.66
2018-03-22T00:57:41.637Z,74.95
2018-03-22T00:58:22.240Z,74.95
2018-03-22T00:59:02.793Z,74.85
2018-03-22T00:59:43.342Z,74.75
2018-03-22T01:00:23.896Z,74.85
2018-03-22T01:01:04.450Z,74.95
2018-03-22T01:01:45.064Z,74.85
2018-03-22T01:02:25.624Z,75.7
2018-03-22T01:03:06.184Z,75.6
2018-03-22T01:03:46.847Z,75.6
2018-03-22T01:04:27.555Z,75.32
2018-03-22T01:05:08.298Z,75.23
2018-03-22T01:05:48.857Z,75.51
2018-03-22T01:06:29.418Z,75.51
2018-03-22T01:07:09.976Z,75.51
2018-03-22T01:07:50.526Z,74.75
2018-03-22T01:08:31.082Z,75.32
2018-03-22T01:09:11.648Z,75.89
2018-03-22T01:09:52.240Z,75.51
2018-03-22T01:10:32.808Z,75.42
2018-03-22T01:11:13.376Z,75.42
2018-03-22T01:11:53.939Z,75.57
2018-03-22T01:12:34.551Z,75.19
2018-03-22T01:13:15.067Z,75.76
2018-03-22T01:13:55.628Z,75.79
2018-03-22T01:14:36.166Z,75.66
2018-03-22T01:15:16.727Z,76.04
2018-03-22T01:15:57.436Z,76.08
2018-03-22T01:16:37.987Z,76.23
2018-03-22T01:17:18.525Z,76.32
2018-03-22T01:17:59.061Z,76.23
2018-03-22T01:18:40.257Z,76.61
2018-03-22T01:19:20.819Z,76.8
2018-03-22T01:20:01.376Z,77.46
2018-03-22T01:20:41.955Z,77.56
2018-03-22T01:21:22.664Z,77.56
2018-03-22T01:22:03.292Z,77.65
2018-03-22T01:22:43.909Z,77.75
2018-03-22T01:23:24.477Z,77.46
2018-03-22T01:24:05.030Z,77.56
2018-03-22T01:24:45.610Z,78.31
2018-03-22T01:25:26.167Z,78.31
2018-03-22T01:26:06.730Z,78.13
2018-03-22T01:26:47.285Z,78.31
2018-03-22T01:27:27.903Z,78.31
2018-03-22T01:28:08.410Z,78.69
2018-03-22T01:28:49.029Z,78.59
2018-03-22T01:29:29.569Z,78.69
2018-03-22T01:30:10.136Z,78.79
2018-03-22T01:30:50.703Z,78.98
2018-03-22T01:31:31.377Z,78.79
2018-03-22T01:32:12.102Z,78.98
2018-03-22T01:32:52.729Z,78.79
2018-03-22T01:33:33.357Z,79.45
2018-03-22T01:34:14.105Z,79.36
2018-03-22T01:34:54.746Z,79.45
2018-03-22T01:35:35.458Z,79.55
2018-03-22T01:36:16.061Z,79.26
2018-03-22T01:36:56.625Z,79.93
2018-03-22T01:37:37.187Z,79.74
2018-03-22T01:38:18.118Z,79.93
2018-03-22T01:38:58.905Z,79.93
2018-03-22T01:39:39.630Z,79.93
2018-03-22T01:40:20.204Z,80.49
2018-03-22T01:41:00.753Z,80.11
2018-03-22T01:41:41.382Z,80.11
2018-03-22T01:42:22.004Z,80.11
2018-03-22T01:43:02.514Z,79.93
2018-03-22T01:43:43.060Z,80.3
2018-03-22T01:44:23.631Z,80.21
2018-03-22T01:45:04.236Z,79.83
2018-03-22T01:45:45.144Z,79.74
2018-03-22T01:46:25.781Z,79.64
2018-03-22T01:47:06.338Z,79.83
2018-03-22T01:47:46.897Z,79.93
2018-03-22T01:48:27.447Z,79.83
2018-03-22T01:49:08.000Z,79.55
2018-03-22T01:49:48.916Z,79.64
2018-03-22T01:50:29.295Z,79.74
2018-03-22T01:51:09.860Z,79.64
2018-03-22T01:51:50.405Z,79.26
2018-03-22T01:52:30.970Z,79.45
2018-03-22T01:53:11.690Z,79.26
2018-03-22T01:53:52.259Z,79.07
2018-03-22T01:54:32.819Z,79.17
2018-03-22T01:55:13.397Z,79.36
2018-03-22T01:55:54.209Z,78.88
2018-03-22T01:56:34.773Z,78.88
2018-03-22T01:57:15.394Z,78.88
2018-03-22T01:57:55.940Z,78.88
2018-03-22T01:58:36.500Z,78.88
2018-03-22T01:59:17.061Z,79.45
2018-03-22T01:59:57.625Z,78.98
2018-03-22T02:00:38.193Z,78.59
2018-03-22T02:01:18.748Z,78.88
2018-03-22T02:01:59.299Z,78.88
2018-03-22T02:02:39.854Z,79.17
2018-03-22T02:03:20.406Z,78.41
2018-03-22T02:04:00.955Z,78.5
2018-03-22T02:04:41.509Z,78.31
2018-03-22T02:05:22.070Z,78.03
2018-03-22T02:06:02.608Z,78.03
2018-03-22T02:06:43.182Z,78.13
2018-03-22T02:07:23.736Z,78.41
2018-03-22T02:08:04.288Z,77.84
2018-03-22T02:08:44.859Z,77.75
2018-03-22T02:09:25.411Z,77.84
2018-03-22T02:10:05.991Z,77.65
2018-03-22T02:10:46.526Z,77.37
2018-03-22T02:11:27.131Z,77.65
2018-03-22T02:12:07.687Z,77.65
2018-03-22T02:12:48.243Z,77.84
2018-03-22T02:13:28.851Z,77.46
2018-03-22T02:14:09.409Z,77.65
2018-03-22T02:14:49.957Z,77.37
2018-03-22T02:15:30.521Z,77.46
2018-03-22T02:16:11.083Z,77.65
2018-03-22T02:16:51.634Z,77.65
2018-03-22T02:17:32.191Z,76.89
2018-03-22T02:18:12.750Z,76.89
2018-03-22T02:18:53.303Z,76.89
2018-03-22T02:19:33.851Z,76.32
2018-03-22T02:20:14.406Z,76.42
2018-03-22T02:20:54.988Z,76.51
2018-03-22T02:21:35.538Z,76.51
2018-03-22T02:22:16.091Z,76.61
2018-03-22T02:22:56.661Z,76.32
2018-03-22T02:23:37.229Z,76.51
2018-03-22T02:24:17.790Z,76.61
2018-03-22T02:24:58.345Z,76.7
2018-03-22T02:25:38.884Z,76.61
2018-03-22T02:26:19.438Z,76.42
2018-03-22T02:26:59.990Z,76.7
2018-03-22T02:27:40.562Z,76.51
2018-03-22T02:28:21.118Z,76.23
2018-03-22T02:29:01.653Z,76.51
2018-03-22T02:29:42.209Z,76.42
2018-03-22T02:30:22.766Z,76.32
2018-03-22T02:31:03.315Z,76.32
2018-03-22T02:31:43.872Z,75.95
2018-03-22T02:32:24.452Z,76.14
2018-03-22T02:33:05.007Z,76.23
2018-03-22T02:33:45.562Z,76.23
2018-03-22T02:34:26.113Z,75.66
2018-03-22T02:35:06.703Z,76.14
2018-03-22T02:35:47.270Z,76.23
2018-03-22T02:36:27.840Z,76.32
2018-03-22T02:37:08.401Z,76.42
2018-03-22T02:37:48.964Z,76.23
2018-03-22T02:38:29.519Z,76.14
2018-03-22T02:39:10.086Z,76.23
2018-03-22T02:39:50.638Z,76.23
2018-03-22T02:40:31.195Z,76.04
2018-03-22T02:41:11.745Z,76.14
2018-03-22T02:41:52.305Z,76.23
2018-03-22T02:42:32.862Z,76.23
2018-03-22T02:43:13.421Z,76.23
2018-03-22T02:43:53.984Z,76.23
2018-03-22T02:44:34.536Z,76.23
2018-03-22T02:45:15.108Z,76.14
2018-03-22T02:45:55.671Z,76.23
2018-03-22T02:46:36.228Z,76.14
2018-03-22T02:47:16.773Z,76.14
2018-03-22T02:47:57.334Z,76.23
2018-03-22T02:48:37.892Z,76.04
2018-03-22T02:49:18.452Z,75.76
2018-03-22T02:49:59.021Z,76.32
2018-03-22T02:50:39.573Z,76.32
2018-03-22T02:51:20.145Z,76.61
2018-03-22T02:52:00.695Z,76.61
2018-03-22T02:52:41.227Z,76.32
2018-03-22T02:53:21.774Z,76.32
2018-03-22T02:54:02.328Z,76.32
2018-03-22T02:54:42.881Z,75.95
2018-03-22T02:55:23.426Z,76.42
2018-03-22T02:56:03.979Z,76.32
2018-03-22T02:56:44.527Z,76.42
2018-03-22T02:57:25.078Z,76.32
2018-03-22T02:58:05.644Z,76.23
2018-03-22T02:58:46.201Z,76.42
2018-03-22T02:59:26.737Z,75.85
2018-03-22T03:00:07.288Z,76.04
2018-03-22T03:00:47.847Z,76.32
2018-03-22T03:01:28.408Z,76.32
2018-03-22T03:02:08.955Z,76.51
2018-03-22T03:02:49.524Z,76.32
2018-03-22T03:03:30.091Z,76.32
2018-03-22T03:04:10.660Z,76.51
2018-03-22T03:04:51.239Z,76.7
2018-03-22T03:05:31.785Z,76.42
2018-03-22T03:06:12.341Z,75.85
2018-03-22T03:06:52.893Z,76.04
2018-03-22T03:07:33.474Z,76.32
2018-03-22T03:08:14.096Z,76.32
2018-03-22T03:08:54.600Z,76.61
2018-03-22T03:09:35.153Z,76.32
2018-03-22T03:10:15.740Z,75.95
2018-03-22T03:10:56.303Z,76.23
2018-03-22T03:11:36.856Z,75.95
2018-03-22T03:12:17.406Z,76.04
2018-03-22T03:12:57.965Z,75.85
2018-03-22T03:13:38.539Z,76.04
2018-03-22T03:14:19.089Z,76.42
2018-03-22T03:14:59.643Z,76.14
2018-03-22T03:15:40.246Z,76.23
2018-03-22T03:16:20.802Z,76.23
2018-03-22T03:17:01.374Z,76.61
2018-03-22T03:17:41.923Z,76.7
2018-03-22T03:18:22.478Z,76.23
2018-03-22T03:19:03.028Z,76.23
2018-03-22T03:19:43.580Z,76.32
2018-03-22T03:20:24.132Z,76.32
2018-03-22T03:21:04.712Z,75.95
2018-03-22T03:21:45.268Z,76.04
2018-03-22T03:22:25.840Z,76.23
2018-03-22T03:23:06.409Z,76.23
2018-03-22T03:23:46.972Z,75.47
2018-03-22T03:24:27.525Z,75.66
2018-03-22T03:25:08.072Z,75.95
2018-03-22T03:25:48.634Z,75.38
2018-03-22T03:26:29.198Z,75.28
2018-03-22T03:27:09.759Z,75.85
2018-03-22T03:27:50.337Z,75.95
2018-03-22T03:28:30.897Z,75.47
2018-03-22T03:29:11.467Z,75.57
2018-03-22T03:29:52.020Z,75.38
2018-03-22T03:30:32.593Z,75.38
2018-03-22T03:31:13.242Z,75.38
2018-03-22T03:31:53.781Z,75.66
2018-03-22T03:32:34.331Z,75.38
2018-03-22T03:33:15.078Z,75.66
2018-03-22T03:33:55.461Z,75.57
2018-03-22T03:34:36.038Z,75.57
2018-03-22T03:35:16.696Z,75.66
2018-03-22T03:35:57.262Z,75.38
2018-03-22T03:36:37.830Z,75.28
2018-03-22T03:37:18.438Z,74.81
2018-03-22T03:37:59.039Z,74.9
2018-03-22T03:38:39.732Z,74.62
2018-03-22T03:39:20.405Z,75.09
2018-03-22T03:40:01.059Z,75.09
2018-03-22T03:40:41.568Z,74.9
2018-03-22T03:41:22.130Z,74.81
2018-03-22T03:42:02.803Z,74.9
2018-03-22T03:42:43.485Z,74.9
2018-03-22T03:43:24.068Z,74.81
2018-03-22T03:44:04.644Z,74.9
2018-03-22T03:44:45.201Z,74.24
2018-03-22T03:45:25.726Z,74.24
2018-03-22T03:46:06.310Z,74.33
2018-03-22T03:46:46.879Z,74.33
2018-03-22T03:47:27.455Z,74.52
2018-03-22T03:48:08.007Z,74.33
2018-03-22T03:48:48.566Z,74.43
2018-03-22T03:49:29.120Z,74.24
2018-03-22T03:50:09.684Z,74.43
2018-03-22T03:50:50.242Z,74.33
2018-03-22T03:51:30.800Z,74.33
2018-03-22T03:52:11.348Z,74.24
2018-03-22T03:52:51.902Z,73.77
2018-03-22T03:53:32.468Z,73.86
2018-03-22T03:54:13.032Z,74.05
2018-03-22T03:54:53.589Z,73.49
2018-03-22T03:55:34.144Z,73.3
2018-03-22T03:56:14.700Z,73.86
2018-03-22T03:56:55.251Z,73.49
2018-03-22T03:57:35.818Z,73.96
2018-03-22T03:58:16.383Z,73.86
2018-03-22T03:58:56.928Z,73.68
2018-03-22T03:59:37.523Z,73.3
2018-03-22T04:00:18.089Z,73.39
2018-03-22T04:00:58.640Z,73.58
2018-03-22T04:01:39.193Z,73.3
2018-03-22T04:02:19.765Z,73.68
2018-03-22T04:03:00.325Z,73.58
2018-03-22T04:03:40.888Z,73.3
2018-03-22T04:04:21.440Z,73.39
2018-03-22T04:05:01.999Z,73.39
2018-03-22T04:05:42.549Z,73.49
2018-03-22T04:06:23.104Z,73.49
2018-03-22T04:07:03.665Z,73.3
2018-03-22T04:07:44.224Z,74.05
2018-03-22T04:08:24.794Z,73.77
2018-03-22T04:09:05.369Z,73.3
2018-03-22T04:09:45.920Z,73.68
2018-03-22T04:10:26.483Z,73.11
2018-03-22T04:11:07.038Z,73.3
2018-03-22T04:11:47.589Z,73.3
2018-03-22T04:12:28.153Z,73.3
2018-03-22T04:13:08.724Z,73.11
2018-03-22T04:13:49.287Z,73.39
2018-03-22T04:14:29.860Z,73.49
2018-03-22T04:15:10.413Z,73.58
2018-03-22T04:15:50.971Z,73.49
2018-03-22T04:16:31.534Z,73.58
2018-03-22T04:17:12.082Z,73.2
2018-03-22T04:17:52.651Z,73.2
2018-03-22T04:18:33.213Z,73.58
2018-03-22T04:19:13.773Z,73.49
2018-03-22T04:19:54.336Z,73.49
2018-03-22T04:20:34.898Z,73.39
2018-03-22T04:21:15.466Z,73.2
2018-03-22T04:21:56.035Z,73.11
2018-03-22T04:22:36.595Z,73.49
2018-03-22T04:23:17.165Z,73.49
2018-03-22T04:23:57.723Z,73.58
2018-03-22T04:24:38.273Z,73.2
2018-03-22T04:25:18.832Z,73.39
2018-03-22T04:25:59.381Z,73.3
2018-03-22T04:26:39.942Z,73.39
2018-03-22T04:27:20.492Z,73.49
2018-03-22T04:28:01.055Z,73.58
2018-03-22T04:28:41.616Z,73.3
2018-03-22T04:29:22.187Z,73.49
2018-03-22T04:30:02.750Z,73.2
2018-03-22T04:30:43.308Z,73.11
2018-03-22T04:31:23.855Z,73.49
2018-03-22T04:32:04.412Z,73.49
2018-03-22T04:32:44.970Z,73.49
2018-03-22T04:33:25.528Z,73.49
2018-03-22T04:34:06.088Z,73.3
2018-03-22T04:34:46.651Z,73.68
2018-03-22T04:35:27.209Z,73.49
2018-03-22T04:36:07.777Z,73.11
2018-03-22T04:36:48.343Z,72.63
2018-03-22T04:37:28.917Z,72.92
2018-03-22T04:38:09.495Z,72.92
2018-03-22T04:38:50.038Z,72.92
2018-03-22T04:39:30.602Z,73.01
2018-03-22T04:40:11.156Z,72.73
2018-03-22T04:40:51.713Z,72.63
2018-03-22T04:41:32.259Z,72.92
2018-03-22T04:42:12.847Z,72.63
2018-03-22T04:42:53.415Z,72.63
2018-03-22T04:43:33.993Z,72.53
2018-03-22T04:44:14.550Z,73.01
2018-03-22T04:44:55.089Z,73.2
2018-03-22T04:45:35.654Z,72.73
2018-03-22T04:46:16.220Z,73.2
2018-03-22T04:46:56.792Z,73.01
2018-03-22T04:47:37.345Z,73.2
2018-03-22T04:48:17.913Z,72.53
2018-03-22T04:48:58.475Z,72.53
2018-03-22T04:49:39.032Z,72.92
2018-03-22T04:50:19.587Z,73.01
2018-03-22T04:51:00.156Z,73.3
2018-03-22T04:51:40.706Z,72.92
2018-03-22T04:52:21.262Z,73.11
2018-03-22T04:53:01.822Z,73.3
2018-03-22T04:53:42.384Z,73.2
2018-03-22T04:54:22.945Z,73.01
2018-03-22T04:55:03.497Z,73.49
2018-03-22T04:55:44.059Z,73.39
2018-03-22T04:56:24.618Z,73.39
2018-03-22T04:57:05.200Z,73.39
2018-03-22T04:57:45.765Z,73.39
2018-03-22T04:58:26.315Z,73.39
2018-03-22T04:59:06.859Z,73.39
2018-03-22T04:59:47.418Z,73.49
2018-03-22T05:00:27.969Z,73.49
2018-03-22T05:01:08.514Z,73.39
2018-03-22T05:01:49.062Z,73.39
2018-03-22T05:02:29.633Z,73.39
2018-03-22T05:03:10.193Z,73.2
2018-03-22T05:03:50.832Z,73.77
2018-03-22T05:04:31.396Z,73.01
2018-03-22T05:05:11.948Z,73.39
2018-03-22T05:05:52.493Z,73.3
2018-03-22T05:06:33.053Z,73.3
2018-03-22T05:07:13.619Z,73.49
2018-03-22T05:07:54.172Z,73.68
2018-03-22T05:08:34.745Z,73.39
2018-03-22T05:09:15.307Z,73.2
2018-03-22T05:09:55.868Z,73.2
2018-03-22T05:10:36.419Z,73.58
2018-03-22T05:11:16.978Z,73.11
2018-03-22T05:11:57.533Z,73.2
2018-03-22T05:12:38.089Z,73.3
2018-03-22T05:13:18.660Z,73.77
2018-03-22T05:13:59.233Z,73.49
2018-03-22T05:14:39.774Z,73.3
2018-03-22T05:15:20.345Z,73.39
2018-03-22T05:16:00.905Z,73.3
2018-03-22T05:16:41.455Z,73.86
2018-03-22T05:17:22.027Z,73.58
2018-03-22T05:18:02.588Z,73.39
2018-03-22T05:18:43.178Z,73.58
2018-03-22T05:19:23.713Z,73.58
2018-03-22T05:20:04.262Z,73.39
2018-03-22T05:20:44.812Z,73.77
2018-03-22T05:21:25.390Z,73.58
2018-03-22T05:22:05.954Z,73.49
2018-03-22T05:22:46.624Z,73.3
2018-03-22T05:23:27.181Z,73.3
2018-03-22T05:24:07.737Z,73.39
2018-03-22T05:24:48.307Z,73.39
2018-03-22T05:25:28.862Z,73.3
2018-03-22T05:26:09.460Z,73.2
2018-03-22T05:26:49.983Z,73.2
2018-03-22T05:27:30.542Z,73.39
2018-03-22T05:28:11.113Z,73.3
2018-03-22T05:28:51.672Z,73.49
2018-03-22T05:29:32.227Z,73.49
2018-03-22T05:30:12.784Z,73.49
2018-03-22T05:30:53.358Z,73.49
2018-03-22T05:31:33.910Z,73.39
2018-03-22T05:32:14.471Z,73.68
2018-03-22T05:32:55.002Z,73.68
2018-03-22T05:33:35.554Z,74.05
2018-03-22T05:34:16.112Z,73.49
2018-03-22T05:34:56.671Z,73.96
2018-03-22T05:35:37.226Z,74.15
2018-03-22T05:36:17.799Z,74.05
2018-03-22T05:36:58.396Z,73.49
2018-03-22T05:37:39.011Z,73.58
2018-03-22T05:38:19.553Z,73.58
2018-03-22T05:39:00.269Z,73.49
2018-03-22T05:39:40.892Z,73.39
2018-03-22T05:40:21.453Z,73.49
2018-03-22T05:41:02.028Z,73.49
2018-03-22T05:41:42.571Z,73.68
2018-03-22T05:42:23.136Z,73.49
2018-03-22T05:43:03.691Z,74.05
2018-03-22T05:43:44.238Z,74.24
2018-03-22T05:44:24.791Z,74.15
2018-03-22T05:45:05.356Z,74.15
2018-03-22T05:45:46.050Z,74.05
2018-03-22T05:46:26.618Z,74.24
2018-03-22T05:47:07.184Z,73.86
2018-03-22T05:47:47.746Z,74.05
2018-03-22T05:48:28.278Z,74.24
2018-03-22T05:49:08.835Z,74.15
2018-03-22T05:49:49.397Z,74.33
2018-03-22T05:50:29.973Z,74.33
2018-03-22T05:51:10.533Z,74.52
2018-03-22T05:51:51.085Z,74.52
2018-03-22T05:52:31.646Z,74.15
2018-03-22T05:53:12.210Z,74.43
2018-03-22T05:53:52.769Z,74.43
2018-03-22T05:54:33.336Z,74.33
2018-03-22T05:55:13.886Z,74.52
2018-03-22T05:55:54.440Z,74.71
2018-03-22T05:56:34.994Z,74.71
2018-03-22T05:57:15.554Z,74.71
2018-03-22T05:57:56.194Z,74.62
2018-03-22T05:58:37.352Z,74.81
2018-03-22T05:59:17.918Z,74.81
2018-03-22T05:59:58.478Z,74.9
2018-03-22T06:00:39.043Z,74.71
2018-03-22T06:01:19.630Z,74.81
2018-03-22T06:02:00.196Z,75.19
2018-03-22T06:02:40.753Z,74.71
2018-03-22T06:03:21.305Z,74.71
2018-03-22T06:04:01.859Z,75.28
2018-03-22T06:04:42.414Z,75.28
2018-03-22T06:05:22.971Z,75.66
2018-03-22T06:06:03.560Z,75.28
2018-03-22T06:06:44.123Z,75.09
2018-03-22T06:07:24.677Z,75.66
2018-03-22T06:08:05.246Z,75.47
2018-03-22T06:08:45.813Z,75
2018-03-22T06:09:26.376Z,75.57
2018-03-22T06:10:06.932Z,75.38
2018-03-22T06:10:47.477Z,75.47
2018-03-22T06:11:28.036Z,75.19
2018-03-22T06:12:08.600Z,75.28
2018-03-22T06:12:49.164Z,75.38
2018-03-22T06:13:29.725Z,75.76
2018-03-22T06:14:10.290Z,75.76
2018-03-22T06:14:50.850Z,75.57
2018-03-22T06:15:31.465Z,76.42
2018-03-22T06:16:12.030Z,76.14
2018-03-22T06:16:52.575Z,76.14
2018-03-22T06:17:33.123Z,76.14
2018-03-22T06:18:13.679Z,75.66
2018-03-22T06:18:54.234Z,75.57
2018-03-22T06:19:34.831Z,75.38
2018-03-22T06:20:15.341Z,75.28
2018-03-22T06:20:55.897Z,75.47
2018-03-22T06:21:36.470Z,75.38
2018-03-22T06:22:17.032Z,75.57
2018-03-22T06:22:57.613Z,75.66
2018-03-22T06:23:38.200Z,75.09
2018-03-22T06:24:18.794Z,75.28
2018-03-22T06:24:59.383Z,75.38
2018-03-22T06:25:39.983Z,77.94
2018-03-22T06:26:20.491Z,79.93
2018-03-22T06:27:01.069Z,80.34
2018-03-22T06:27:41.632Z,80.15
2018-03-22T06:28:22.199Z,78.73
2018-03-22T06:29:02.750Z,77.73
2018-03-22T06:29:43.305Z,74.88
2018-03-22T06:30:23.857Z,73.84
2018-03-22T06:31:04.422Z,72.71
2018-03-22T06:31:44.985Z,71.38
2018-03-22T06:32:25.534Z,71.28
2018-03-22T06:33:06.098Z,71.32
2018-03-22T06:33:46.646Z,70.47
2018-03-22T06:34:27.205Z,68.19
2018-03-22T06:35:07.747Z,66.77
2018-03-22T06:35:48.311Z,65.91
2018-03-22T06:36:28.856Z,65.69
2018-03-22T06:37:09.804Z,65.59
2018-03-22T06:37:50.363Z,65.5
2018-03-22T06:38:31.000Z,65.97
2018-03-22T06:39:11.551Z,66.83
2018-03-22T06:39:52.150Z,67.11
2018-03-22T06:40:32.730Z,67.77
2018-03-22T06:41:13.318Z,68.12
2018-03-22T06:41:53.904Z,68.21
2018-03-22T06:42:34.464Z,68.59
2018-03-22T06:43:15.083Z,69.07
2018-03-22T06:43:55.654Z,69.07
2018-03-22T06:44:36.222Z,69.54
2018-03-22T06:45:16.780Z,69.54
2018-03-22T06:45:57.337Z,70.49
2018-03-22T06:46:37.889Z,70.58
2018-03-22T06:47:18.441Z,70.49
2018-03-22T06:47:58.989Z,70.78
2018-03-22T06:48:39.539Z,70.87
2018-03-22T06:49:20.174Z,71.25
2018-03-22T06:50:00.742Z,71.06
2018-03-22T06:50:41.295Z,71.44
2018-03-22T06:51:21.862Z,72
2018-03-22T06:52:02.410Z,72.1
2018-03-22T06:52:42.962Z,72.29
2018-03-22T06:53:23.683Z,72.48
2018-03-22T06:54:04.188Z,72.92
2018-03-22T06:54:45.199Z,73.01
2018-03-22T06:55:25.914Z,73.39
2018-03-22T06:56:06.495Z,73.96
2018-03-22T06:56:47.042Z,74.33
2018-03-22T06:57:27.608Z,74.33
2018-03-22T06:58:09.015Z,74.71
2018-03-22T06:58:49.077Z,75.47
2018-03-22T06:59:29.629Z,75.85
2018-03-22T07:00:10.202Z,75.76
2018-03-22T07:00:50.769Z,76.42
2018-03-22T07:01:32.750Z,77.08
2018-03-22T07:02:13.344Z,76.89
2018-03-22T07:02:53.908Z,77.65
2018-03-22T07:03:34.548Z,78.31
2018-03-22T07:04:15.165Z,78.41
2018-03-22T07:04:55.718Z,78.79
2018-03-22T07:05:36.266Z,79.45
2018-03-22T07:06:16.857Z,80.02
2018-03-22T07:06:58.786Z,80.21
2018-03-22T07:07:39.294Z,80.4
2018-03-22T07:08:19.865Z,80.77
2018-03-22T07:09:00.441Z,81.06
2018-03-22T07:09:41.001Z,81.92
2018-03-22T07:10:21.590Z,82.1
2018-03-22T07:11:02.126Z,81.82
2018-03-22T07:11:42.856Z,82.29
2018-03-22T07:12:23.448Z,83.05
2018-03-22T07:13:04.005Z,83.39
2018-03-22T07:13:44.556Z,83.58
2018-03-22T07:14:25.116Z,83.86
2018-03-22T07:15:05.677Z,83.9
2018-03-22T07:15:46.232Z,84.33
2018-03-22T07:16:26.806Z,84.81
2018-03-22T07:17:07.363Z,84.81
2018-03-22T07:17:47.918Z,84.61
2018-03-22T07:18:28.509Z,85.09
2018-03-22T07:19:09.058Z,85.85
2018-03-22T07:19:49.619Z,85.57
2018-03-22T07:20:31.040Z,86.32
2018-03-22T07:21:11.650Z,86.13
2018-03-22T07:21:52.186Z,86.89
2018-03-22T07:22:32.719Z,86.89
2018-03-22T07:23:13.278Z,86.79
2018-03-22T07:23:53.817Z,86.89
2018-03-22T07:24:34.365Z,86.79
2018-03-22T07:25:14.916Z,87.08
2018-03-22T07:25:55.507Z,87.08
2018-03-22T07:26:36.018Z,87.65
2018-03-22T07:27:16.604Z,87.65
2018-03-22T07:27:58.377Z,87.84
2018-03-22T07:28:38.963Z,88.12
2018-03-22T07:29:19.998Z,88.21
2018-03-22T07:30:00.598Z,87.84
2018-03-22T07:30:41.329Z,88.4
2018-03-22T07:31:22.008Z,89.16
2018-03-22T07:32:02.661Z,88.87
2018-03-22T07:32:43.281Z,89.06
2018-03-22T07:33:23.838Z,89.44
2018-03-22T07:34:04.404Z,89.44
2018-03-22T07:34:45.097Z,89.44
2018-03-22T07:35:25.659Z,89.92
2018-03-22T07:36:06.580Z,89.82
2018-03-22T07:36:47.181Z,89.82
2018-03-22T07:37:27.695Z,89.63
2018-03-22T07:38:08.320Z,89.73
2018-03-22T07:38:48.929Z,89.82
2018-03-22T07:39:29.724Z,89.73
2018-03-22T07:40:10.366Z,89.54
2018-03-22T07:40:50.941Z,89.92
2018-03-22T07:41:31.566Z,90.11
2018-03-22T07:42:12.888Z,90.01
2018-03-22T07:42:53.467Z,89.92
2018-03-22T07:43:34.066Z,90.39
2018-03-22T07:44:14.618Z,89.82
2018-03-22T07:44:55.224Z,89.82
2018-03-22T07:45:35.781Z,89.92
2018-03-22T07:46:16.343Z,90.11
2018-03-22T07:46:56.927Z,89.82
2018-03-22T07:47:37.487Z,89.73
2018-03-22T07:48:18.040Z,90.01
2018-03-22T07:48:58.587Z,89.25
2018-03-22T07:49:39.170Z,90.01
2018-03-22T07:50:19.727Z,89.63
2018-03-22T07:51:00.290Z,90.01
2018-03-22T07:51:40.882Z,89.92
2018-03-22T07:52:21.441Z,89.73
2018-03-22T07:53:01.997Z,89.73
2018-03-22T07:53:42.592Z,89.82
2018-03-22T07:54:23.447Z,89.82
2018-03-22T07:55:04.013Z,90.01
2018-03-22T07:55:44.655Z,89.82
2018-03-22T07:56:25.256Z,89.82
2018-03-22T07:57:05.820Z,90.01
2018-03-22T07:57:46.382Z,90.11
2018-03-22T07:58:26.926Z,89.44
2018-03-22T07:59:07.455Z,89.25
2018-03-22T07:59:48.138Z,89.54
2018-03-22T08:00:28.752Z,89.06
2018-03-22T08:01:09.316Z,89.44
2018-03-22T08:01:50.468Z,89.25
2018-03-22T08:02:31.018Z,89.25
2018-03-22T08:03:11.561Z,89.44
2018-03-22T08:03:52.120Z,89.44
2018-03-22T08:04:32.670Z,89.82
2018-03-22T08:05:13.275Z,88.59
2018-03-22T08:05:53.890Z,88.49
2018-03-22T08:06:34.371Z,88.59
2018-03-22T08:07:14.931Z,88.31
2018-03-22T08:07:55.471Z,88.97
2018-03-22T08:08:36.050Z,88.78
2018-03-22T08:09:16.596Z,88.87
2018-03-22T08:09:57.149Z,89.35
2018-03-22T08:10:37.755Z,89.25
2018-03-22T08:11:18.300Z,89.35
2018-03-22T08:11:58.868Z,89.25
2018-03-22T08:12:39.428Z,89.73
2018-03-22T08:13:20.016Z,89.35
2018-03-22T08:14:00.573Z,90.01
2018-03-22T08:14:41.122Z,89.82
2018-03-22T08:15:21.693Z,89.63
2018-03-22T08:16:02.393Z,89.63
2018-03-22T08:16:42.939Z,89.54
2018-03-22T08:17:23.677Z,89.73
2018-03-22T08:18:04.226Z,89.63
2018-03-22T08:18:44.782Z,89.63
2018-03-22T08:19:25.339Z,89.54
2018-03-22T08:20:05.970Z,89.82
2018-03-22T08:20:46.540Z,89.63
2018-03-22T08:21:27.099Z,89.82
2018-03-22T08:22:07.821Z,90.01
2018-03-22T08:22:48.467Z,90.11
2018-03-22T08:23:28.969Z,90.11
2018-03-22T08:24:09.532Z,90.3
2018-03-22T08:24:50.068Z,90.48
2018-03-22T08:25:30.628Z,90.48
2018-03-22T08:26:11.184Z,90.77
2018-03-22T08:26:51.751Z,90.67
2018-03-22T08:27:32.287Z,91.15
2018-03-22T08:28:12.851Z,90.77
2018-03-22T08:28:53.397Z,90.86
2018-03-22T08:29:34.072Z,91.15
2018-03-22T08:30:14.632Z,90.67
2018-03-22T08:30:55.204Z,90.96
2018-03-22T08:31:35.787Z,90.77
2018-03-22T08:32:16.347Z,91.15
2018-03-22T08:32:56.906Z,91.15
2018-03-22T08:33:37.494Z,90.77
2018-03-22T08:34:18.071Z,91.05
2018-03-22T08:34:58.633Z,91.15
2018-03-22T08:35:39.201Z,90.77
2018-03-22T08:36:19.750Z,90.96
2018-03-22T08:37:00.300Z,90.67
2018-03-22T08:37:40.853Z,91.15
2018-03-22T08:38:21.425Z,91.43
2018-03-22T08:39:01.969Z,91.05
2018-03-22T08:39:42.520Z,91.15
2018-03-22T08:40:23.084Z,90.96
2018-03-22T08:41:03.655Z,91.24
2018-03-22T08:41:44.234Z,91.34
2018-03-22T08:42:24.786Z,91.24
2018-03-22T08:43:05.358Z,91.34
2018-03-22T08:43:45.885Z,91.62
2018-03-22T08:44:26.463Z,91.15